sensor_id;sensor_type;location;lat;lon;timestamp;pressure;altitude;pressure_sealevel;temperature;humidity
12963;BME280;6546;49.882;8.666;2023-08-06T00:01:56;99156.50;;;17.14;79.46
12963;BME280;6546;49.882;8.666;2023-08-06T00:04:23;99146.69;;;17.10;79.75
12963;BME280;6546;49.882;8.666;2023-08-06T00:06:49;99135.91;;;17.18;78.99
12963;BME280;6546;49.882;8.666;2023-08-06T00:09:17;99134.19;;;17.12;79.23
12963;BME280;6546;49.882;8.666;2023-08-06T00:11:44;99135.22;;;17.11;79.71
12963;BME280;6546;49.882;8.666;2023-08-06T00:14:12;99139.28;;;17.07;79.92
12963;BME280;6546;49.882;8.666;2023-08-06T00:16:42;99138.94;;;17.03;80.33
12963;BME280;6546;49.882;8.666;2023-08-06T00:19:08;99127.03;;;16.96;79.61
12963;BME280;6546;49.882;8.666;2023-08-06T00:21:35;99138.84;;;16.98;80.15
12963;BME280;6546;49.882;8.666;2023-08-06T00:24:02;99141.81;;;17.02;80.35
12963;BME280;6546;49.882;8.666;2023-08-06T00:26:30;99128.84;;;17.07;80.48
12963;BME280;6546;49.882;8.666;2023-08-06T00:28:56;99115.66;;;17.02;79.19
12963;BME280;6546;49.882;8.666;2023-08-06T00:31:23;99123.38;;;17.20;77.70
12963;BME280;6546;49.882;8.666;2023-08-06T00:33:49;99116.53;;;17.19;76.91
12963;BME280;6546;49.882;8.666;2023-08-06T00:36:16;99110.66;;;17.12;76.99
12963;BME280;6546;49.882;8.666;2023-08-06T00:38:42;99103.47;;;17.07;77.60
12963;BME280;6546;49.882;8.666;2023-08-06T00:41:09;99095.41;;;16.97;77.51
12963;BME280;6546;49.882;8.666;2023-08-06T00:43:37;99096.31;;;17.03;77.60
12963;BME280;6546;49.882;8.666;2023-08-06T00:46:04;99096.66;;;16.95;77.62
12963;BME280;6546;49.882;8.666;2023-08-06T00:48:31;99083.34;;;16.85;78.82
12963;BME280;6546;49.882;8.666;2023-08-06T00:50:57;99087.56;;;16.86;78.99
12963;BME280;6546;49.882;8.666;2023-08-06T00:53:24;99091.53;;;16.88;78.45
12963;BME280;6546;49.882;8.666;2023-08-06T00:55:52;99066.97;;;16.77;79.05
12963;BME280;6546;49.882;8.666;2023-08-06T00:58:19;99077.34;;;16.96;78.72
12963;BME280;6546;49.882;8.666;2023-08-06T01:00:47;99076.75;;;16.94;78.68
12963;BME280;6546;49.882;8.666;2023-08-06T01:03:13;99068.91;;;16.94;79.27
12963;BME280;6546;49.882;8.666;2023-08-06T01:05:41;99066.06;;;16.95;79.25
12963;BME280;6546;49.882;8.666;2023-08-06T01:08:21;99064.34;;;17.01;79.22
12963;BME280;6546;49.882;8.666;2023-08-06T01:11:00;99065.97;;;17.02;79.10
12963;BME280;6546;49.882;8.666;2023-08-06T01:13:34;99059.69;;;17.03;79.60
12963;BME280;6546;49.882;8.666;2023-08-06T01:16:05;99070.28;;;17.08;79.90
12963;BME280;6546;49.882;8.666;2023-08-06T01:18:32;99062.44;;;17.08;79.92
12963;BME280;6546;49.882;8.666;2023-08-06T01:21:00;99062.53;;;17.13;79.86
12963;BME280;6546;49.882;8.666;2023-08-06T01:23:27;99057.09;;;17.14;80.11
12963;BME280;6546;49.882;8.666;2023-08-06T01:25:58;99057.63;;;17.16;79.67
12963;BME280;6546;49.882;8.666;2023-08-06T01:28:33;99054.22;;;17.16;79.94
12963;BME280;6546;49.882;8.666;2023-08-06T01:31:07;99057.97;;;17.20;78.67
12963;BME280;6546;49.882;8.666;2023-08-06T01:33:40;99052.53;;;17.21;78.27
12963;BME280;6546;49.882;8.666;2023-08-06T01:36:11;99049.22;;;17.26;77.37
12963;BME280;6546;49.882;8.666;2023-08-06T01:38:38;99036.03;;;17.21;77.15
12963;BME280;6546;49.882;8.666;2023-08-06T01:41:05;99043.97;;;17.26;77.18
12963;BME280;6546;49.882;8.666;2023-08-06T01:43:31;99040.81;;;17.24;77.57
12963;BME280;6546;49.882;8.666;2023-08-06T01:45:58;99041.59;;;17.24;78.18
12963;BME280;6546;49.882;8.666;2023-08-06T01:48:24;99040.81;;;17.24;78.61
12963;BME280;6546;49.882;8.666;2023-08-06T01:50:51;99047.19;;;17.28;78.03
12963;BME280;6546;49.882;8.666;2023-08-06T01:53:19;99046.38;;;17.27;78.46
12963;BME280;6546;49.882;8.666;2023-08-06T01:55:47;99048.19;;;17.27;78.74
12963;BME280;6546;49.882;8.666;2023-08-06T01:58:14;99050.00;;;17.26;78.55
12963;BME280;6546;49.882;8.666;2023-08-06T02:00:41;99044.56;;;17.28;78.76
12963;BME280;6546;49.882;8.666;2023-08-06T02:03:07;99046.72;;;17.31;77.75
12963;BME280;6546;49.882;8.666;2023-08-06T02:05:34;99037.72;;;17.27;78.31
12963;BME280;6546;49.882;8.666;2023-08-06T02:08:00;99040.34;;;17.27;77.80
12963;BME280;6546;49.882;8.666;2023-08-06T02:10:30;99038.53;;;17.27;78.12
12963;BME280;6546;49.882;8.666;2023-08-06T02:12:57;99040.91;;;17.29;78.45
12963;BME280;6546;49.882;8.666;2023-08-06T02:15:23;99028.88;;;17.28;78.32
12963;BME280;6546;49.882;8.666;2023-08-06T02:17:50;99025.19;;;17.29;78.69
12963;BME280;6546;49.882;8.666;2023-08-06T02:20:16;99017.81;;;17.26;78.44
12963;BME280;6546;49.882;8.666;2023-08-06T02:22:43;99001.09;;;17.27;78.65
12963;BME280;6546;49.882;8.666;2023-08-06T02:25:09;99013.97;;;17.28;78.19
12963;BME280;6546;49.882;8.666;2023-08-06T02:27:41;99003.38;;;17.23;78.27
12963;BME280;6546;49.882;8.666;2023-08-06T02:30:08;99007.69;;;17.29;77.94
12963;BME280;6546;49.882;8.666;2023-08-06T02:32:34;99001.66;;;17.29;76.53
12963;BME280;6546;49.882;8.666;2023-08-06T02:35:01;99000.16;;;17.33;75.83
12963;BME280;6546;49.882;8.666;2023-08-06T02:37:27;98991.19;;;17.29;75.68
12963;BME280;6546;49.882;8.666;2023-08-06T02:39:54;98985.75;;;17.30;76.38
12963;BME280;6546;49.882;8.666;2023-08-06T02:42:20;98979.78;;;17.35;75.47
12963;BME280;6546;49.882;8.666;2023-08-06T02:44:49;98984.47;;;17.33;72.30
12963;BME280;6546;49.882;8.666;2023-08-06T02:47:16;98982.31;;;17.30;74.59
12963;BME280;6546;49.882;8.666;2023-08-06T02:49:43;98979.25;;;17.33;73.85
12963;BME280;6546;49.882;8.666;2023-08-06T02:52:09;98981.84;;;17.33;72.60
12963;BME280;6546;49.882;8.666;2023-08-06T02:54:36;98971.06;;;17.29;72.80
12963;BME280;6546;49.882;8.666;2023-08-06T02:57:03;98979.28;;;17.21;74.70
12963;BME280;6546;49.882;8.666;2023-08-06T02:59:29;98968.81;;;17.21;75.44
12963;BME280;6546;49.882;8.666;2023-08-06T03:01:57;98967.41;;;17.30;72.21
12963;BME280;6546;49.882;8.666;2023-08-06T03:04:24;98974.84;;;17.22;72.96
12963;BME280;6546;49.882;8.666;2023-08-06T03:06:50;98975.28;;;17.19;73.82
12963;BME280;6546;49.882;8.666;2023-08-06T03:09:17;98970.28;;;17.17;73.84
12963;BME280;6546;49.882;8.666;2023-08-06T03:11:44;98964.19;;;17.12;73.95
12963;BME280;6546;49.882;8.666;2023-08-06T03:14:10;98966.00;;;17.11;73.85
12963;BME280;6546;49.882;8.666;2023-08-06T03:16:37;98963.94;;;17.13;72.87
12963;BME280;6546;49.882;8.666;2023-08-06T03:19:05;98958.47;;;17.15;72.46
12963;BME280;6546;49.882;8.666;2023-08-06T03:21:31;98954.63;;;17.06;74.32
12963;BME280;6546;49.882;8.666;2023-08-06T03:23:58;98951.44;;;17.15;73.06
12963;BME280;6546;49.882;8.666;2023-08-06T03:26:24;98953.03;;;17.05;73.19
12963;BME280;6546;49.882;8.666;2023-08-06T03:28:51;98952.25;;;17.04;73.98
12963;BME280;6546;49.882;8.666;2023-08-06T03:31:17;98955.06;;;17.03;73.49
12963;BME280;6546;49.882;8.666;2023-08-06T03:33:44;98947.00;;;17.04;73.26
12963;BME280;6546;49.882;8.666;2023-08-06T03:36:11;98953.38;;;16.97;74.75
12963;BME280;6546;49.882;8.666;2023-08-06T03:38:38;98944.53;;;16.98;74.18
12963;BME280;6546;49.882;8.666;2023-08-06T03:41:04;98933.16;;;16.92;74.04
12963;BME280;6546;49.882;8.666;2023-08-06T03:43:31;98941.81;;;16.93;73.84
12963;BME280;6546;49.882;8.666;2023-08-06T03:45:57;98942.59;;;16.93;74.36
12963;BME280;6546;49.882;8.666;2023-08-06T03:48:24;98936.81;;;16.91;73.10
12963;BME280;6546;49.882;8.666;2023-08-06T03:50:50;98942.84;;;16.92;73.33
12963;BME280;6546;49.882;8.666;2023-08-06T03:53:18;98938.41;;;16.80;74.93
12963;BME280;6546;49.882;8.666;2023-08-06T03:55:45;98935.13;;;16.85;75.19
12963;BME280;6546;49.882;8.666;2023-08-06T03:58:11;98933.28;;;16.86;75.22
12963;BME280;6546;49.882;8.666;2023-08-06T04:00:38;98941.03;;;16.92;74.12
12963;BME280;6546;49.882;8.666;2023-08-06T04:03:04;98937.25;;;16.88;75.61
12963;BME280;6546;49.882;8.666;2023-08-06T04:05:31;98940.56;;;16.95;75.36
12963;BME280;6546;49.882;8.666;2023-08-06T04:07:58;98947.59;;;16.95;75.17
12963;BME280;6546;49.882;8.666;2023-08-06T04:10:26;98960.78;;;16.88;76.40
12963;BME280;6546;49.882;8.666;2023-08-06T04:12:53;98948.53;;;16.89;77.11
12963;BME280;6546;49.882;8.666;2023-08-06T04:15:20;98963.19;;;16.78;78.74
12963;BME280;6546;49.882;8.666;2023-08-06T04:17:46;98960.59;;;16.66;79.75
12963;BME280;6546;49.882;8.666;2023-08-06T04:20:13;98956.59;;;16.52;81.19
12963;BME280;6546;49.882;8.666;2023-08-06T04:22:40;98956.38;;;16.54;82.26
12963;BME280;6546;49.882;8.666;2023-08-06T04:25:06;98955.16;;;16.56;81.76
12963;BME280;6546;49.882;8.666;2023-08-06T04:27:34;98953.28;;;16.45;82.86
12963;BME280;6546;49.882;8.666;2023-08-06T04:30:02;98951.72;;;16.44;83.09
12963;BME280;6546;49.882;8.666;2023-08-06T04:32:30;98958.50;;;16.45;83.54
12963;BME280;6546;49.882;8.666;2023-08-06T04:34:56;98945.69;;;16.44;83.39
12963;BME280;6546;49.882;8.666;2023-08-06T04:37:23;98955.78;;;16.40;83.86
12963;BME280;6546;49.882;8.666;2023-08-06T04:39:50;98947.38;;;16.38;84.66
12963;BME280;6546;49.882;8.666;2023-08-06T04:42:16;98948.97;;;16.39;85.35
12963;BME280;6546;49.882;8.666;2023-08-06T04:44:45;98943.97;;;16.49;84.77
12963;BME280;6546;49.882;8.666;2023-08-06T04:47:11;98940.34;;;16.50;83.37
12963;BME280;6546;49.882;8.666;2023-08-06T04:49:38;98945.22;;;16.47;82.82
12963;BME280;6546;49.882;8.666;2023-08-06T04:52:05;98941.81;;;16.46;82.70
12963;BME280;6546;49.882;8.666;2023-08-06T04:54:32;98941.03;;;16.34;83.94
12963;BME280;6546;49.882;8.666;2023-08-06T04:56:58;98943.75;;;16.39;83.26
12963;BME280;6546;49.882;8.666;2023-08-06T04:59:25;98941.34;;;16.26;84.21
12963;BME280;6546;49.882;8.666;2023-08-06T05:01:53;98930.00;;;16.20;83.98
12963;BME280;6546;49.882;8.666;2023-08-06T05:04:19;98944.53;;;16.28;84.22
12963;BME280;6546;49.882;8.666;2023-08-06T05:06:47;98938.63;;;16.33;83.53
12963;BME280;6546;49.882;8.666;2023-08-06T05:09:14;98931.47;;;16.28;83.14
12963;BME280;6546;49.882;8.666;2023-08-06T05:11:40;98940.34;;;16.27;84.00
12963;BME280;6546;49.882;8.666;2023-08-06T05:14:07;98943.06;;;16.32;83.58
12963;BME280;6546;49.882;8.666;2023-08-06T05:16:33;98941.47;;;16.31;83.00
12963;BME280;6546;49.882;8.666;2023-08-06T05:19:01;98943.50;;;16.29;83.40
12963;BME280;6546;49.882;8.666;2023-08-06T05:21:28;98937.94;;;16.25;83.88
12963;BME280;6546;49.882;8.666;2023-08-06T05:23:54;98940.34;;;16.27;83.33
12963;BME280;6546;49.882;8.666;2023-08-06T05:26:21;98946.69;;;16.31;82.67
12963;BME280;6546;49.882;8.666;2023-08-06T05:28:47;98941.25;;;16.21;83.53
12963;BME280;6546;49.882;8.666;2023-08-06T05:31:14;98942.03;;;16.21;83.67
12963;BME280;6546;49.882;8.666;2023-08-06T05:33:40;98948.03;;;16.22;83.55
12963;BME280;6546;49.882;8.666;2023-08-06T05:36:11;98953.03;;;16.12;83.88
12963;BME280;6546;49.882;8.666;2023-08-06T05:38:38;98956.41;;;16.12;84.72
12963;BME280;6546;49.882;8.666;2023-08-06T05:41:05;98954.16;;;16.16;84.79
12963;BME280;6546;49.882;8.666;2023-08-06T05:43:31;98955.31;;;16.20;85.36
12963;BME280;6546;49.882;8.666;2023-08-06T05:45:58;98952.84;;;16.25;84.37
12963;BME280;6546;49.882;8.666;2023-08-06T05:48:24;98956.56;;;16.29;84.24
12963;BME280;6546;49.882;8.666;2023-08-06T05:50:55;98949.63;;;16.23;83.77
12963;BME280;6546;49.882;8.666;2023-08-06T05:53:23;98952.59;;;16.26;83.37
12963;BME280;6546;49.882;8.666;2023-08-06T05:55:50;98955.88;;;16.22;84.38
12963;BME280;6546;49.882;8.666;2023-08-06T05:58:20;98955.31;;;16.20;83.89
12963;BME280;6546;49.882;8.666;2023-08-06T06:00:46;98955.75;;;16.17;83.75
12963;BME280;6546;49.882;8.666;2023-08-06T06:03:13;98948.84;;;16.22;84.48
12963;BME280;6546;49.882;8.666;2023-08-06T06:05:40;98950.09;;;16.20;84.19
12963;BME280;6546;49.882;8.666;2023-08-06T06:08:06;98955.00;;;16.28;84.14
12963;BME280;6546;49.882;8.666;2023-08-06T06:10:34;98955.22;;;16.26;83.23
12963;BME280;6546;49.882;8.666;2023-08-06T06:13:01;98952.25;;;16.23;84.40
12963;BME280;6546;49.882;8.666;2023-08-06T06:15:28;98955.75;;;16.17;85.02
12963;BME280;6546;49.882;8.666;2023-08-06T06:17:54;98957.72;;;16.21;85.11
12963;BME280;6546;49.882;8.666;2023-08-06T06:20:21;98958.06;;;16.25;85.37
12963;BME280;6546;49.882;8.666;2023-08-06T06:22:48;98941.09;;;16.16;84.06
12963;BME280;6546;49.882;8.666;2023-08-06T06:25:14;98956.00;;;16.27;84.27
12963;BME280;6546;49.882;8.666;2023-08-06T06:27:42;98958.84;;;16.25;84.79
12963;BME280;6546;49.882;8.666;2023-08-06T06:30:10;98957.47;;;16.23;84.43
12963;BME280;6546;49.882;8.666;2023-08-06T06:32:37;98964.84;;;16.26;84.62
12963;BME280;6546;49.882;8.666;2023-08-06T06:35:05;98960.88;;;16.35;85.15
12963;BME280;6546;49.882;8.666;2023-08-06T06:37:32;98962.16;;;16.44;84.28
12963;BME280;6546;49.882;8.666;2023-08-06T06:39:58;98961.91;;;16.46;82.96
12963;BME280;6546;49.882;8.666;2023-08-06T06:42:25;98960.44;;;16.38;83.47
12963;BME280;6546;49.882;8.666;2023-08-06T06:44:52;98957.97;;;16.32;83.33
12963;BME280;6546;49.882;8.666;2023-08-06T06:47:19;98965.19;;;16.29;83.71
12963;BME280;6546;49.882;8.666;2023-08-06T06:49:48;98964.06;;;16.25;84.19
12963;BME280;6546;49.882;8.666;2023-08-06T06:52:14;98951.22;;;16.24;84.46
12963;BME280;6546;49.882;8.666;2023-08-06T06:54:41;98951.59;;;16.27;84.69
12963;BME280;6546;49.882;8.666;2023-08-06T06:57:07;98951.47;;;16.34;83.60
12963;BME280;6546;49.882;8.666;2023-08-06T06:59:34;98950.78;;;16.27;83.41
12963;BME280;6546;49.882;8.666;2023-08-06T07:02:02;98942.16;;;16.15;83.28
12963;BME280;6546;49.882;8.666;2023-08-06T07:04:28;98949.53;;;16.18;83.20
12963;BME280;6546;49.882;8.666;2023-08-06T07:06:55;98955.19;;;16.15;84.16
12963;BME280;6546;49.882;8.666;2023-08-06T07:09:21;98949.03;;;16.09;84.08
12963;BME280;6546;49.882;8.666;2023-08-06T07:11:48;98953.72;;;16.19;83.72
12963;BME280;6546;49.882;8.666;2023-08-06T07:14:14;98954.63;;;16.13;84.74
12963;BME280;6546;49.882;8.666;2023-08-06T07:16:41;98960.63;;;16.13;84.57
12963;BME280;6546;49.882;8.666;2023-08-06T07:19:09;98962.59;;;16.18;84.61
12963;BME280;6546;49.882;8.666;2023-08-06T07:21:35;98966.91;;;16.24;84.65
12963;BME280;6546;49.882;8.666;2023-08-06T07:24:02;98960.31;;;16.21;85.00
12963;BME280;6546;49.882;8.666;2023-08-06T07:26:29;98965.66;;;16.26;85.05
12963;BME280;6546;49.882;8.666;2023-08-06T07:28:55;98961.69;;;16.24;84.46
12963;BME280;6546;49.882;8.666;2023-08-06T07:31:22;98959.19;;;16.29;84.20
12963;BME280;6546;49.882;8.666;2023-08-06T07:33:48;98967.25;;;16.27;84.67
12963;BME280;6546;49.882;8.666;2023-08-06T07:36:16;98962.69;;;16.23;84.31
12963;BME280;6546;49.882;8.666;2023-08-06T07:38:43;98972.94;;;16.24;84.26
12963;BME280;6546;49.882;8.666;2023-08-06T07:41:10;98971.44;;;16.17;85.10
12963;BME280;6546;49.882;8.666;2023-08-06T07:43:36;98960.78;;;16.18;85.53
12963;BME280;6546;49.882;8.666;2023-08-06T07:46:03;98973.25;;;16.16;84.59
12963;BME280;6546;49.882;8.666;2023-08-06T07:48:30;98970.53;;;16.23;85.95
12963;BME280;6546;49.882;8.666;2023-08-06T07:50:57;98973.84;;;16.30;85.32
12963;BME280;6546;49.882;8.666;2023-08-06T07:53:25;98971.13;;;16.37;84.63
12963;BME280;6546;49.882;8.666;2023-08-06T07:55:54;98964.28;;;16.36;85.20
12963;BME280;6546;49.882;8.666;2023-08-06T07:58:23;98965.22;;;16.41;85.22
12963;BME280;6546;49.882;8.666;2023-08-06T08:00:49;98969.31;;;16.49;85.21
12963;BME280;6546;49.882;8.666;2023-08-06T08:03:16;98953.63;;;16.49;84.23
12963;BME280;6546;49.882;8.666;2023-08-06T08:05:44;98966.81;;;16.54;83.15
12963;BME280;6546;49.882;8.666;2023-08-06T08:08:11;98960.66;;;16.48;83.46
12963;BME280;6546;49.882;8.666;2023-08-06T08:10:39;98958.50;;;16.45;83.29
12963;BME280;6546;49.882;8.666;2023-08-06T08:13:05;98957.38;;;16.41;84.41
12963;BME280;6546;49.882;8.666;2023-08-06T08:15:32;98954.31;;;16.44;83.38
12963;BME280;6546;49.882;8.666;2023-08-06T08:17:59;98957.72;;;16.45;83.46
12963;BME280;6546;49.882;8.666;2023-08-06T08:20:26;98952.47;;;16.45;84.15
12963;BME280;6546;49.882;8.666;2023-08-06T08:22:57;98954.78;;;16.53;83.66
12963;BME280;6546;49.882;8.666;2023-08-06T08:25:24;98943.31;;;16.65;83.78
12963;BME280;6546;49.882;8.666;2023-08-06T08:27:52;98943.41;;;16.70;83.26
12963;BME280;6546;49.882;8.666;2023-08-06T08:30:18;98941.81;;;16.81;84.06
12963;BME280;6546;49.882;8.666;2023-08-06T08:32:45;98939.38;;;17.03;84.27
12963;BME280;6546;49.882;8.666;2023-08-06T08:35:11;98935.13;;;17.25;84.43
12963;BME280;6546;49.882;8.666;2023-08-06T08:37:39;98934.47;;;17.46;82.47
12963;BME280;6546;49.882;8.666;2023-08-06T08:40:07;98934.78;;;17.61;81.15
12963;BME280;6546;49.882;8.666;2023-08-06T08:42:34;98931.66;;;17.76;81.17
12963;BME280;6546;49.882;8.666;2023-08-06T08:45:04;98924.97;;;17.85;79.76
12963;BME280;6546;49.882;8.666;2023-08-06T08:47:31;98926.81;;;17.84;79.64
12963;BME280;6546;49.882;8.666;2023-08-06T08:49:58;98926.94;;;17.78;79.08
12963;BME280;6546;49.882;8.666;2023-08-06T08:52:26;98924.88;;;17.63;78.98
12963;BME280;6546;49.882;8.666;2023-08-06T08:54:56;98925.34;;;17.60;80.05
12963;BME280;6546;49.882;8.666;2023-08-06T08:57:22;98919.72;;;17.68;81.88
12963;BME280;6546;49.882;8.666;2023-08-06T08:59:50;98926.81;;;17.84;81.08
12963;BME280;6546;49.882;8.666;2023-08-06T09:02:18;98917.34;;;17.83;79.83
12963;BME280;6546;49.882;8.666;2023-08-06T09:04:48;98911.50;;;17.76;79.48
12963;BME280;6546;49.882;8.666;2023-08-06T09:07:18;98913.94;;;18.00;81.44
12963;BME280;6546;49.882;8.666;2023-08-06T09:09:47;98919.44;;;18.15;80.19
12963;BME280;6546;49.882;8.666;2023-08-06T09:12:16;98923.31;;;18.29;80.04
12963;BME280;6546;49.882;8.666;2023-08-06T09:14:43;98920.63;;;18.41;78.35
12963;BME280;6546;49.882;8.666;2023-08-06T09:17:10;98924.81;;;18.58;78.61
12963;BME280;6546;49.882;8.666;2023-08-06T09:19:41;98922.66;;;18.55;77.72
12963;BME280;6546;49.882;8.666;2023-08-06T09:22:11;98919.34;;;18.43;75.86
12963;BME280;6546;49.882;8.666;2023-08-06T09:24:39;98922.28;;;18.30;77.70
12963;BME280;6546;49.882;8.666;2023-08-06T09:27:10;98919.66;;;18.30;79.15
12963;BME280;6546;49.882;8.666;2023-08-06T09:29:40;98922.44;;;18.40;77.48
12963;BME280;6546;49.882;8.666;2023-08-06T09:32:07;98909.97;;;18.30;75.61
12963;BME280;6546;49.882;8.666;2023-08-06T09:34:33;98921.09;;;18.38;76.61
12963;BME280;6546;49.882;8.666;2023-08-06T09:37:03;98915.28;;;18.52;78.35
12963;BME280;6546;49.882;8.666;2023-08-06T09:39:30;98905.25;;;18.66;75.90
12963;BME280;6546;49.882;8.666;2023-08-06T09:41:58;98907.34;;;18.85;75.06
12963;BME280;6546;49.882;8.666;2023-08-06T09:44:26;98914.78;;;18.94;74.90
12963;BME280;6546;49.882;8.666;2023-08-06T09:46:54;98907.34;;;18.85;72.27
12963;BME280;6546;49.882;8.666;2023-08-06T09:49:24;98908.06;;;18.59;74.31
12963;BME280;6546;49.882;8.666;2023-08-06T09:51:52;98914.75;;;18.50;76.41
12963;BME280;6546;49.882;8.666;2023-08-06T09:54:23;98918.22;;;18.39;75.68
12963;BME280;6546;49.882;8.666;2023-08-06T09:56:49;98922.38;;;18.35;77.24
12963;BME280;6546;49.882;8.666;2023-08-06T09:59:23;98913.94;;;18.33;78.47
12963;BME280;6546;49.882;8.666;2023-08-06T10:01:51;98919.81;;;18.40;78.53
12963;BME280;6546;49.882;8.666;2023-08-06T10:04:17;98924.44;;;18.33;76.80
12963;BME280;6546;49.882;8.666;2023-08-06T10:06:47;98927.94;;;18.22;76.75
12963;BME280;6546;49.882;8.666;2023-08-06T10:09:14;98921.75;;;18.11;77.90
12963;BME280;6546;49.882;8.666;2023-08-06T10:11:42;98931.09;;;18.07;78.86
12963;BME280;6546;49.882;8.666;2023-08-06T10:14:16;98926.59;;;18.03;78.96
12963;BME280;6546;49.882;8.666;2023-08-06T10:16:45;98923.88;;;17.98;79.51
12963;BME280;6546;49.882;8.666;2023-08-06T10:19:13;98922.53;;;17.95;79.78
12963;BME280;6546;49.882;8.666;2023-08-06T10:21:42;98929.66;;;18.00;79.84
12963;BME280;6546;49.882;8.666;2023-08-06T10:24:45;98926.03;;;18.01;79.14
12963;BME280;6546;49.882;8.666;2023-08-06T10:27:13;98926.34;;;18.04;79.53
12963;BME280;6546;49.882;8.666;2023-08-06T10:29:39;98925.06;;;18.07;79.45
12963;BME280;6546;49.882;8.666;2023-08-06T10:32:06;98930.78;;;18.04;79.95
12963;BME280;6546;49.882;8.666;2023-08-06T10:34:55;98931.19;;;17.96;77.00
12963;BME280;6546;49.882;8.666;2023-08-06T10:37:23;98939.25;;;17.77;78.08
12963;BME280;6546;49.882;8.666;2023-08-06T10:39:50;98940.13;;;17.66;78.14
12963;BME280;6546;49.882;8.666;2023-08-06T10:42:22;98939.06;;;17.67;79.81
12963;BME280;6546;49.882;8.666;2023-08-06T10:45:11;98938.69;;;17.75;78.73
12963;BME280;6546;49.882;8.666;2023-08-06T10:47:38;98930.88;;;17.92;81.48
12963;BME280;6546;49.882;8.666;2023-08-06T10:50:06;98941.38;;;18.25;83.28
12963;BME280;6546;49.882;8.666;2023-08-06T10:52:33;98936.25;;;18.52;80.23
12963;BME280;6546;49.882;8.666;2023-08-06T10:55:00;98940.16;;;18.66;78.10
12963;BME280;6546;49.882;8.666;2023-08-06T10:57:28;98945.19;;;18.90;79.83
12963;BME280;6546;49.882;8.666;2023-08-06T10:59:54;98944.91;;;19.13;75.70
12963;BME280;6546;49.882;8.666;2023-08-06T11:02:21;98951.25;;;19.17;74.44
12963;BME280;6546;49.882;8.666;2023-08-06T11:04:48;98944.00;;;19.24;74.49
12963;BME280;6546;49.882;8.666;2023-08-06T11:07:14;98947.47;;;19.29;73.14
12963;BME280;6546;49.882;8.666;2023-08-06T11:09:42;98941.34;;;19.41;72.40
12963;BME280;6546;49.882;8.666;2023-08-06T11:12:09;98937.69;;;19.42;70.80
12963;BME280;6546;49.882;8.666;2023-08-06T11:14:38;98931.63;;;19.41;70.03
12963;BME280;6546;49.882;8.666;2023-08-06T11:17:04;98930.03;;;19.40;69.94
12963;BME280;6546;49.882;8.666;2023-08-06T11:19:30;98934.88;;;19.48;70.28
12963;BME280;6546;49.882;8.666;2023-08-06T11:21:57;98930.50;;;19.37;68.73
12963;BME280;6546;49.882;8.666;2023-08-06T11:24:24;98934.72;;;19.16;69.75
12963;BME280;6546;49.882;8.666;2023-08-06T11:26:51;98949.13;;;18.92;69.43
12963;BME280;6546;49.882;8.666;2023-08-06T11:29:17;98961.81;;;18.78;72.20
12963;BME280;6546;49.882;8.666;2023-08-06T11:31:45;98972.84;;;18.80;71.37
12963;BME280;6546;49.882;8.666;2023-08-06T11:34:12;98982.94;;;18.88;71.30
12963;BME280;6546;49.882;8.666;2023-08-06T11:36:40;98985.38;;;18.95;71.11
12963;BME280;6546;49.882;8.666;2023-08-06T11:39:07;98996.81;;;19.06;70.79
12963;BME280;6546;49.882;8.666;2023-08-06T11:41:35;99004.06;;;18.99;71.31
12963;BME280;6546;49.882;8.666;2023-08-06T11:44:03;99003.38;;;18.86;71.73
12963;BME280;6546;49.882;8.666;2023-08-06T11:46:51;99004.53;;;18.57;70.59
12963;BME280;6546;49.882;8.666;2023-08-06T11:49:18;99014.56;;;18.32;69.11
12963;BME280;6546;49.882;8.666;2023-08-06T11:51:47;99009.06;;;18.17;70.67
12963;BME280;6546;49.882;8.666;2023-08-06T11:54:14;99028.91;;;18.13;71.70
12963;BME280;6546;49.882;8.666;2023-08-06T11:56:40;99030.50;;;18.14;70.30
12963;BME280;6546;49.882;8.666;2023-08-06T11:59:08;99030.97;;;18.11;70.66
12963;BME280;6546;49.882;8.666;2023-08-06T12:01:35;99023.41;;;17.98;71.07
12963;BME280;6546;49.882;8.666;2023-08-06T12:04:04;99039.47;;;18.01;71.88
12963;BME280;6546;49.882;8.666;2023-08-06T12:06:30;99042.69;;;17.92;73.54
12963;BME280;6546;49.882;8.666;2023-08-06T12:08:57;99051.69;;;17.84;74.24
12963;BME280;6546;49.882;8.666;2023-08-06T12:11:23;99052.97;;;17.81;75.69
12963;BME280;6546;49.882;8.666;2023-08-06T12:13:50;99053.44;;;17.78;74.66
12963;BME280;6546;49.882;8.666;2023-08-06T12:16:17;99063.25;;;17.71;75.29
12963;BME280;6546;49.882;8.666;2023-08-06T12:18:44;99064.06;;;17.72;76.63
12963;BME280;6546;49.882;8.666;2023-08-06T12:21:12;99068.69;;;17.81;75.37
12963;BME280;6546;49.882;8.666;2023-08-06T12:23:38;99076.47;;;17.76;74.71
12963;BME280;6546;49.882;8.666;2023-08-06T12:26:05;99086.47;;;17.79;74.46
12963;BME280;6546;49.882;8.666;2023-08-06T12:28:31;99080.84;;;17.88;72.99
12963;BME280;6546;49.882;8.666;2023-08-06T12:30:58;99079.81;;;17.89;73.17
12963;BME280;6546;49.882;8.666;2023-08-06T12:33:24;99086.00;;;17.82;72.61
12963;BME280;6546;49.882;8.666;2023-08-06T12:35:51;99092.16;;;17.76;74.05
12963;BME280;6546;49.882;8.666;2023-08-06T12:38:21;99102.63;;;17.76;74.37
12963;BME280;6546;49.882;8.666;2023-08-06T12:40:47;99098.97;;;17.77;72.38
12963;BME280;6546;49.882;8.666;2023-08-06T12:43:14;99104.69;;;17.74;71.64
12963;BME280;6546;49.882;8.666;2023-08-06T12:45:40;99098.88;;;17.72;70.90
12963;BME280;6546;49.882;8.666;2023-08-06T12:48:07;99107.09;;;17.64;72.17
12963;BME280;6546;49.882;8.666;2023-08-06T12:50:33;99112.69;;;17.56;71.84
12963;BME280;6546;49.882;8.666;2023-08-06T12:53:00;99109.38;;;17.49;70.00
12963;BME280;6546;49.882;8.666;2023-08-06T12:55:28;99115.44;;;17.38;71.45
12963;BME280;6546;49.882;8.666;2023-08-06T12:57:55;99122.94;;;17.35;72.60
12963;BME280;6546;49.882;8.666;2023-08-06T13:00:21;99130.09;;;17.39;69.88
12963;BME280;6546;49.882;8.666;2023-08-06T13:02:48;99132.16;;;17.37;71.55
12963;BME280;6546;49.882;8.666;2023-08-06T13:05:14;99133.38;;;17.46;72.24
12963;BME280;6546;49.882;8.666;2023-08-06T13:07:41;99131.78;;;17.45;71.72
12963;BME280;6546;49.882;8.666;2023-08-06T13:10:08;99143.38;;;17.49;70.49
12963;BME280;6546;49.882;8.666;2023-08-06T13:12:36;99151.81;;;17.51;71.10